Hovedside
METAR-TAF:

METAR-TAF

Lufthavner :

Lisboa, Portugal

Portela lufthavn

breddegrad: 38-46N, lengdegrad: 009-08W, høyde over havet: 114 m

Gjeldene værobservasjon

Denne rapporten ble laget for 39 minutter siden, klokken 21:00 UTC
Vind 12 kt fra Nord-nordvest
Temperatur 11°C
Luftfuktighet 82%
Trykk 1022 hPa
Sikt 10 km eller mer
ingen skyer under 1500 m og ingen bygeskyer

METAR: LPPT 182100Z 33012KT CAVOK 11/08 Q1022

Tid: 21:39 (21:39 UTC)

Varsel

Denne rapporten ble laget for 4 timer og 39 minutter siden, klokken 17:00 UTC
Varsel gyldig fra 18. klokken 18 UTC til 19. klokken 24 UTC
Vind 12 kt fra Nord-nordvest
Sikt 10 km eller mer
ingen skyer under 1500 m og ingen bygeskyer
Blir
fra 18. klokken 20 UTC til 18. klokken 22 UTC
Vind 12 kt fra Nord
Midlertidig
fra 18. klokken 22 UTC til 19. klokken 06 UTC
Sikt 10 km eller mer
Spredte skyer i en høyde av 1200 ft

TAF: LPPT 181700Z 1818/1924 34012KT CAVOK BECMG 1820/1822 01012KT TEMPO 1822/1906 9999 SCT012

Værobservasjoner og værvarsel for over 4000 flyplasser (METAR- og TAF-rapporter).

Tilgjengelige stasjoner er representert av de røde og gule prikkene på kartet.

Hold musepekeren over prikken for å se navnet på stasjonen.

Klikk så for å se værobservasjoner og -varsler.

For å forandre kartet kan du klikke på den grønne knappen med svart kryss for å zoome inn, på den grønne knappen med strek for å zoome ut, eller på de grønne pilene for å se tilstøtende kart.


METAR-TAF: